sensor_id;sensor_type;location;lat;lon;timestamp;pressure;altitude;pressure_sealevel;temperature;humidity
70229;BME280;57617;51.988;5.854;2023-02-04T00:01:21;102755.97;;;10.61;66.30
70229;BME280;57617;51.988;5.854;2023-02-04T00:03:46;102760.41;;;10.62;66.34
70229;BME280;57617;51.988;5.854;2023-02-04T00:06:11;102752.44;;;10.61;66.20
70229;BME280;57617;51.988;5.854;2023-02-04T00:08:37;102757.00;;;10.60;66.36
70229;BME280;57617;51.988;5.854;2023-02-04T00:11:03;102756.38;;;10.58;66.21
70229;BME280;57617;51.988;5.854;2023-02-04T00:13:28;102767.06;;;10.60;66.54
70229;BME280;57617;51.988;5.854;2023-02-04T00:15:53;102756.75;;;10.55;66.42
70229;BME280;57617;51.988;5.854;2023-02-04T00:18:19;102761.38;;;10.55;66.22
70229;BME280;57617;51.988;5.854;2023-02-04T00:20:44;102773.22;;;10.54;66.38
70229;BME280;57617;51.988;5.854;2023-02-04T00:23:09;102775.13;;;10.53;66.57
70229;BME280;57617;51.988;5.854;2023-02-04T00:25:34;102778.03;;;10.52;66.29
70229;BME280;57617;51.988;5.854;2023-02-04T00:28:00;102774.28;;;10.53;66.57
70229;BME280;57617;51.988;5.854;2023-02-04T00:30:25;102777.00;;;10.53;66.47
70229;BME280;57617;51.988;5.854;2023-02-04T00:32:50;102777.00;;;10.53;66.65
70229;BME280;57617;51.988;5.854;2023-02-04T00:35:19;102783.28;;;10.53;66.42
70229;BME280;57617;51.988;5.854;2023-02-04T00:37:44;102780.13;;;10.50;67.47
70229;BME280;57617;51.988;5.854;2023-02-04T00:40:10;102792.22;;;10.47;66.68
70229;BME280;57617;51.988;5.854;2023-02-04T00:42:35;102789.69;;;10.46;66.63
70229;BME280;57617;51.988;5.854;2023-02-04T00:45:01;102791.25;;;10.40;66.76
70229;BME280;57617;51.988;5.854;2023-02-04T00:47:26;102799.81;;;10.37;66.78
70229;BME280;57617;51.988;5.854;2023-02-04T00:49:51;102804.13;;;10.32;66.65
70229;BME280;57617;51.988;5.854;2023-02-04T00:52:17;102801.59;;;10.30;66.92
70229;BME280;57617;51.988;5.854;2023-02-04T00:54:42;102803.28;;;10.31;67.08
70229;BME280;57617;51.988;5.854;2023-02-04T00:57:07;102808.69;;;10.31;67.15
70229;BME280;57617;51.988;5.854;2023-02-04T00:59:32;102805.34;;;10.29;66.90
70229;BME280;57617;51.988;5.854;2023-02-04T01:01:58;102800.94;;;10.28;67.08
70229;BME280;57617;51.988;5.854;2023-02-04T01:04:24;102800.28;;;10.26;66.95
70229;BME280;57617;51.988;5.854;2023-02-04T01:06:50;102799.63;;;10.24;66.99
70229;BME280;57617;51.988;5.854;2023-02-04T01:09:15;102809.00;;;10.22;67.10
70229;BME280;57617;51.988;5.854;2023-02-04T01:11:41;102801.91;;;10.21;66.93
70229;BME280;57617;51.988;5.854;2023-02-04T01:14:06;102802.25;;;10.18;66.79
70229;BME280;57617;51.988;5.854;2023-02-04T01:16:32;102800.59;;;10.17;67.23
70229;BME280;57617;51.988;5.854;2023-02-04T01:18:57;102804.34;;;10.16;67.20
70229;BME280;57617;51.988;5.854;2023-02-04T01:21:23;102807.63;;;10.11;66.96
70229;BME280;57617;51.988;5.854;2023-02-04T01:23:48;102818.00;;;10.08;66.98
70229;BME280;57617;51.988;5.854;2023-02-04T01:26:19;102830.31;;;10.04;67.21
70229;BME280;57617;51.988;5.854;2023-02-04T01:28:45;102835.03;;;10.02;67.49
70229;BME280;57617;51.988;5.854;2023-02-04T01:31:10;102836.25;;;9.99;67.41
70229;BME280;57617;51.988;5.854;2023-02-04T01:33:35;102847.50;;;9.96;67.83
70229;BME280;57617;51.988;5.854;2023-02-04T01:36:01;102845.41;;;9.98;67.75
70229;BME280;57617;51.988;5.854;2023-02-04T01:38:26;102852.53;;;9.99;67.48
70229;BME280;57617;51.988;5.854;2023-02-04T01:40:51;102844.38;;;9.99;67.98
70229;BME280;57617;51.988;5.854;2023-02-04T01:43:17;102849.09;;;10.05;67.95
70229;BME280;57617;51.988;5.854;2023-02-04T01:45:44;102849.09;;;10.05;67.63
70229;BME280;57617;51.988;5.854;2023-02-04T01:48:10;102841.97;;;10.04;67.56
70229;BME280;57617;51.988;5.854;2023-02-04T01:50:37;102850.81;;;10.06;67.79
70229;BME280;57617;51.988;5.854;2023-02-04T01:53:02;102850.59;;;10.08;67.74
70229;BME280;57617;51.988;5.854;2023-02-04T01:55:30;102853.13;;;10.09;67.53
70229;BME280;57617;51.988;5.854;2023-02-04T01:57:56;102860.63;;;10.07;67.81
70229;BME280;57617;51.988;5.854;2023-02-04T02:00:26;102858.94;;;10.06;67.55
70229;BME280;57617;51.988;5.854;2023-02-04T02:02:52;102862.88;;;10.04;67.80
70229;BME280;57617;51.988;5.854;2023-02-04T02:05:22;102871.03;;;10.04;67.41
70229;BME280;57617;51.988;5.854;2023-02-04T02:07:50;102866.94;;;10.00;67.73
70229;BME280;57617;51.988;5.854;2023-02-04T02:10:17;102864.13;;;9.93;68.04
70229;BME280;57617;51.988;5.854;2023-02-04T02:12:44;102880.41;;;9.93;67.91
70229;BME280;57617;51.988;5.854;2023-02-04T02:15:11;102871.63;;;9.91;67.76
70229;BME280;57617;51.988;5.854;2023-02-04T02:17:38;102868.41;;;9.88;68.08
70229;BME280;57617;51.988;5.854;2023-02-04T02:20:06;102880.13;;;9.88;68.11
70229;BME280;57617;51.988;5.854;2023-02-04T02:22:38;102869.63;;;9.85;67.86
70229;BME280;57617;51.988;5.854;2023-02-04T02:25:10;102869.47;;;9.87;68.42
70229;BME280;57617;51.988;5.854;2023-02-04T02:27:36;102878.00;;;9.84;68.09
70229;BME280;57617;51.988;5.854;2023-02-04T02:30:01;102883.59;;;9.82;67.78
70229;BME280;57617;51.988;5.854;2023-02-04T02:32:26;102885.84;;;9.79;67.77
70229;BME280;57617;51.988;5.854;2023-02-04T02:34:51;102883.88;;;9.73;68.24
70229;BME280;57617;51.988;5.854;2023-02-04T02:37:17;102880.88;;;9.68;67.87
70229;BME280;57617;51.988;5.854;2023-02-04T02:39:43;102862.09;;;9.44;67.68
70229;BME280;57617;51.988;5.854;2023-02-04T02:42:13;102894.19;;;9.55;67.79
70229;BME280;57617;51.988;5.854;2023-02-04T02:44:39;102879.41;;;9.43;67.94
70229;BME280;57617;51.988;5.854;2023-02-04T02:47:04;102885.19;;;9.40;67.81
70229;BME280;57617;51.988;5.854;2023-02-04T02:49:31;102881.88;;;9.30;67.97
70229;BME280;57617;51.988;5.854;2023-02-04T02:51:57;102892.88;;;9.28;68.17
70229;BME280;57617;51.988;5.854;2023-02-04T02:56:51;102893.78;;;9.21;68.19
70229;BME280;57617;51.988;5.854;2023-02-04T02:59:17;102884.16;;;9.18;68.20
70229;BME280;57617;51.988;5.854;2023-02-04T03:01:45;102879.28;;;9.14;68.79
70229;BME280;57617;51.988;5.854;2023-02-04T03:04:12;102888.28;;;9.14;68.27
70229;BME280;57617;51.988;5.854;2023-02-04T03:06:38;102895.06;;;9.10;68.65
70229;BME280;57617;51.988;5.854;2023-02-04T03:09:04;102898.13;;;9.07;68.59
70229;BME280;57617;51.988;5.854;2023-02-04T03:11:29;102903.56;;;9.07;68.14
70229;BME280;57617;51.988;5.854;2023-02-04T03:13:58;102912.25;;;9.03;68.26
70229;BME280;57617;51.988;5.854;2023-02-04T03:16:26;102911.75;;;8.99;68.57
70229;BME280;57617;51.988;5.854;2023-02-04T03:18:51;102908.06;;;8.92;68.74
70229;BME280;57617;51.988;5.854;2023-02-04T03:21:16;102921.97;;;8.89;68.81
70229;BME280;57617;51.988;5.854;2023-02-04T03:23:42;102919.78;;;8.85;68.34
70229;BME280;57617;51.988;5.854;2023-02-04T03:26:07;102921.84;;;8.83;68.25
70229;BME280;57617;51.988;5.854;2023-02-04T03:28:33;102928.47;;;8.80;68.61
70229;BME280;57617;51.988;5.854;2023-02-04T03:30:58;102938.81;;;8.77;69.09
70229;BME280;57617;51.988;5.854;2023-02-04T03:33:26;102936.63;;;8.72;68.47
70229;BME280;57617;51.988;5.854;2023-02-04T03:35:55;102946.78;;;8.70;68.48
70229;BME280;57617;51.988;5.854;2023-02-04T03:38:20;102941.72;;;8.67;68.82
70229;BME280;57617;51.988;5.854;2023-02-04T03:40:46;102945.63;;;8.65;68.53
70229;BME280;57617;51.988;5.854;2023-02-04T03:43:11;102938.03;;;8.60;69.18
70229;BME280;57617;51.988;5.854;2023-02-04T03:45:36;102932.47;;;8.54;68.70
70229;BME280;57617;51.988;5.854;2023-02-04T03:48:02;102930.97;;;8.51;68.97
70229;BME280;57617;51.988;5.854;2023-02-04T03:50:27;102926.41;;;8.52;68.67
70229;BME280;57617;51.988;5.854;2023-02-04T03:52:52;102923.19;;;8.48;68.73
70229;BME280;57617;51.988;5.854;2023-02-04T03:55:18;102925.22;;;8.46;69.44
70229;BME280;57617;51.988;5.854;2023-02-04T03:57:44;102929.31;;;8.42;68.62
70229;BME280;57617;51.988;5.854;2023-02-04T04:00:10;102931.34;;;8.40;68.77
70229;BME280;57617;51.988;5.854;2023-02-04T04:02:35;102929.16;;;8.36;69.00
70229;BME280;57617;51.988;5.854;2023-02-04T04:05:00;102935.63;;;8.35;68.99
70229;BME280;57617;51.988;5.854;2023-02-04T04:07:26;102932.22;;;8.33;69.07
70229;BME280;57617;51.988;5.854;2023-02-04T04:09:51;102934.44;;;8.29;69.56
70229;BME280;57617;51.988;5.854;2023-02-04T04:12:16;102937.31;;;8.28;68.80
70229;BME280;57617;51.988;5.854;2023-02-04T04:14:41;102937.47;;;8.26;69.49
70229;BME280;57617;51.988;5.854;2023-02-04T04:17:07;102941.56;;;8.22;69.47
70229;BME280;57617;51.988;5.854;2023-02-04T04:19:32;102946.28;;;8.20;69.22
70229;BME280;57617;51.988;5.854;2023-02-04T04:21:57;102949.34;;;8.17;69.75
70229;BME280;57617;51.988;5.854;2023-02-04T04:24:23;102942.19;;;8.16;69.87
70229;BME280;57617;51.988;5.854;2023-02-04T04:26:48;102945.94;;;8.15;69.56
70229;BME280;57617;51.988;5.854;2023-02-04T04:29:13;102948.81;;;8.14;68.95
70229;BME280;57617;51.988;5.854;2023-02-04T04:31:38;102945.28;;;8.13;69.70
70229;BME280;57617;51.988;5.854;2023-02-04T04:34:04;102944.41;;;8.13;69.39
70229;BME280;57617;51.988;5.854;2023-02-04T04:36:29;102945.59;;;8.10;69.08
70229;BME280;57617;51.988;5.854;2023-02-04T04:38:54;102939.88;;;8.05;69.59
70229;BME280;57617;51.988;5.854;2023-02-04T04:41:20;102954.09;;;8.07;69.94
70229;BME280;57617;51.988;5.854;2023-02-04T04:43:45;102955.09;;;8.06;69.38
70229;BME280;57617;51.988;5.854;2023-02-04T04:46:10;102964.22;;;8.05;69.55
70229;BME280;57617;51.988;5.854;2023-02-04T04:48:35;102965.25;;;8.04;69.81
70229;BME280;57617;51.988;5.854;2023-02-04T04:51:01;102965.59;;;8.01;69.57
70229;BME280;57617;51.988;5.854;2023-02-04T04:53:26;102965.41;;;8.03;69.65
70229;BME280;57617;51.988;5.854;2023-02-04T04:55:51;102967.78;;;8.06;70.35
70229;BME280;57617;51.988;5.854;2023-02-04T04:58:16;102966.59;;;8.08;70.21
70229;BME280;57617;51.988;5.854;2023-02-04T05:00:42;102969.97;;;8.10;70.05
70229;BME280;57617;51.988;5.854;2023-02-04T05:03:07;102972.50;;;8.12;70.04
70229;BME280;57617;51.988;5.854;2023-02-04T05:05:32;102966.06;;;8.13;70.54
70229;BME280;57617;51.988;5.854;2023-02-04T05:08:04;102974.88;;;8.15;70.49
70229;BME280;57617;51.988;5.854;2023-02-04T05:10:29;102976.06;;;8.20;70.86
70229;BME280;57617;51.988;5.854;2023-02-04T05:12:54;102975.91;;;8.22;70.44
70229;BME280;57617;51.988;5.854;2023-02-04T05:15:19;102974.22;;;8.21;69.98
70229;BME280;57617;51.988;5.854;2023-02-04T05:17:45;102981.47;;;8.28;69.99
70229;BME280;57617;51.988;5.854;2023-02-04T05:20:10;102981.97;;;8.32;70.31
70229;BME280;57617;51.988;5.854;2023-02-04T05:22:36;102982.47;;;8.35;71.07
70229;BME280;57617;51.988;5.854;2023-02-04T05:25:01;102977.75;;;8.37;70.47
70229;BME280;57617;51.988;5.854;2023-02-04T05:27:26;102982.78;;;8.40;71.11
70229;BME280;57617;51.988;5.854;2023-02-04T05:29:51;102987.88;;;8.43;70.55
70229;BME280;57617;51.988;5.854;2023-02-04T05:32:18;102993.94;;;8.45;70.66
70229;BME280;57617;51.988;5.854;2023-02-04T05:34:43;102981.59;;;8.51;70.53
70229;BME280;57617;51.988;5.854;2023-02-04T05:37:08;102988.31;;;8.55;71.00
70229;BME280;57617;51.988;5.854;2023-02-04T05:39:34;102984.41;;;8.57;71.31
70229;BME280;57617;51.988;5.854;2023-02-04T05:41:59;102990.34;;;8.61;71.09
70229;BME280;57617;51.988;5.854;2023-02-04T05:44:24;102981.91;;;8.56;71.06
70229;BME280;57617;51.988;5.854;2023-02-04T05:46:49;102992.69;;;8.64;70.57
70229;BME280;57617;51.988;5.854;2023-02-04T05:49:15;102998.28;;;8.62;71.29
70229;BME280;57617;51.988;5.854;2023-02-04T05:51:40;102996.44;;;8.63;71.41
70229;BME280;57617;51.988;5.854;2023-02-04T05:54:05;103004.38;;;8.64;70.67
70229;BME280;57617;51.988;5.854;2023-02-04T05:56:31;102993.56;;;8.64;71.08
70229;BME280;57617;51.988;5.854;2023-02-04T05:58:56;102981.91;;;8.56;70.86
70229;BME280;57617;51.988;5.854;2023-02-04T06:01:21;102997.78;;;8.67;71.78
70229;BME280;57617;51.988;5.854;2023-02-04T06:03:46;102970.22;;;8.55;71.24
70229;BME280;57617;51.988;5.854;2023-02-04T06:06:12;103001.84;;;8.71;70.91
70229;BME280;57617;51.988;5.854;2023-02-04T06:08:37;103009.28;;;8.69;71.05
70229;BME280;57617;51.988;5.854;2023-02-04T06:11:02;103010.13;;;8.69;71.21
70229;BME280;57617;51.988;5.854;2023-02-04T06:13:28;103006.41;;;8.70;71.38
70229;BME280;57617;51.988;5.854;2023-02-04T06:15:53;103012.31;;;8.74;71.46
70229;BME280;57617;51.988;5.854;2023-02-04T06:18:18;103012.63;;;8.79;70.99
70229;BME280;57617;51.988;5.854;2023-02-04T06:20:43;103002.16;;;8.76;71.12
70229;BME280;57617;51.988;5.854;2023-02-04T06:23:09;103013.09;;;8.82;70.97
70229;BME280;57617;51.988;5.854;2023-02-04T06:25:35;103016.84;;;8.81;71.81
70229;BME280;57617;51.988;5.854;2023-02-04T06:28:00;103017.88;;;8.80;71.37
70229;BME280;57617;51.988;5.854;2023-02-04T06:30:25;103022.75;;;8.85;71.57
70229;BME280;57617;51.988;5.854;2023-02-04T06:32:51;103029.53;;;8.89;70.91
70229;BME280;57617;51.988;5.854;2023-02-04T06:35:16;103030.22;;;8.91;71.22
70229;BME280;57617;51.988;5.854;2023-02-04T06:37:42;103026.00;;;8.88;71.99
70229;BME280;57617;51.988;5.854;2023-02-04T06:40:09;103037.81;;;8.87;71.60
70229;BME280;57617;51.988;5.854;2023-02-04T06:42:34;103033.44;;;8.86;71.34
70229;BME280;57617;51.988;5.854;2023-02-04T06:44:59;103039.69;;;8.87;71.82
70229;BME280;57617;51.988;5.854;2023-02-04T06:47:25;103038.69;;;8.88;72.02
70229;BME280;57617;51.988;5.854;2023-02-04T06:49:50;103046.47;;;8.91;71.79
70229;BME280;57617;51.988;5.854;2023-02-04T06:52:15;103055.44;;;8.91;71.64
70229;BME280;57617;51.988;5.854;2023-02-04T06:54:41;103050.88;;;8.92;72.04
70229;BME280;57617;51.988;5.854;2023-02-04T06:57:06;103065.94;;;8.94;71.55
70229;BME280;57617;51.988;5.854;2023-02-04T06:59:36;103060.50;;;8.94;71.98
70229;BME280;57617;51.988;5.854;2023-02-04T07:02:02;103067.13;;;8.92;71.47
70229;BME280;57617;51.988;5.854;2023-02-04T07:04:28;103068.66;;;8.86;71.57
70229;BME280;57617;51.988;5.854;2023-02-04T07:06:53;103082.91;;;8.88;71.84
70229;BME280;57617;51.988;5.854;2023-02-04T07:09:19;103079.97;;;8.90;72.19
70229;BME280;57617;51.988;5.854;2023-02-04T07:11:44;103077.97;;;8.92;71.95
70229;BME280;57617;51.988;5.854;2023-02-04T07:14:09;103080.84;;;8.90;71.74
70229;BME280;57617;51.988;5.854;2023-02-04T07:16:35;103084.41;;;8.91;71.59
70229;BME280;57617;51.988;5.854;2023-02-04T07:19:01;103087.13;;;8.91;71.95
70229;BME280;57617;51.988;5.854;2023-02-04T07:21:26;103094.06;;;8.93;72.22
70229;BME280;57617;51.988;5.854;2023-02-04T07:23:52;103096.75;;;8.93;72.05
70229;BME280;57617;51.988;5.854;2023-02-04T07:26:17;103093.84;;;8.95;72.05
70229;BME280;57617;51.988;5.854;2023-02-04T07:28:42;103092.66;;;8.97;71.93
70229;BME280;57617;51.988;5.854;2023-02-04T07:31:08;103093.53;;;8.98;71.68
70229;BME280;57617;51.988;5.854;2023-02-04T07:33:33;103101.47;;;8.99;72.53
70229;BME280;57617;51.988;5.854;2023-02-04T07:35:59;103104.00;;;9.01;72.20
70229;BME280;57617;51.988;5.854;2023-02-04T07:38:24;103096.88;;;9.00;71.88
70229;BME280;57617;51.988;5.854;2023-02-04T07:40:49;103106.91;;;8.99;72.13
70229;BME280;57617;51.988;5.854;2023-02-04T07:43:15;103112.97;;;9.01;72.10
70229;BME280;57617;51.988;5.854;2023-02-04T07:45:40;103112.66;;;9.04;72.35
70229;BME280;57617;51.988;5.854;2023-02-04T07:48:05;103113.78;;;9.10;72.19
70229;BME280;57617;51.988;5.854;2023-02-04T07:50:30;103119.06;;;9.11;72.00
70229;BME280;57617;51.988;5.854;2023-02-04T07:52:56;103119.72;;;9.13;72.04
70229;BME280;57617;51.988;5.854;2023-02-04T07:55:21;103127.69;;;9.15;72.03
70229;BME280;57617;51.988;5.854;2023-02-04T07:57:46;103141.91;;;9.17;72.68
70229;BME280;57617;51.988;5.854;2023-02-04T08:00:12;103146.47;;;9.16;72.72
70229;BME280;57617;51.988;5.854;2023-02-04T08:02:39;103134.78;;;9.16;72.73
70229;BME280;57617;51.988;5.854;2023-02-04T08:05:05;103144.94;;;9.22;72.30
70229;BME280;57617;51.988;5.854;2023-02-04T08:07:31;103157.13;;;9.26;72.48
70229;BME280;57617;51.988;5.854;2023-02-04T08:09:56;103157.13;;;9.26;72.38
70229;BME280;57617;51.988;5.854;2023-02-04T08:12:21;103156.63;;;9.30;73.02
70229;BME280;57617;51.988;5.854;2023-02-04T08:14:46;103156.06;;;9.35;72.59
70229;BME280;57617;51.988;5.854;2023-02-04T08:17:12;103150.31;;;9.38;72.31
70229;BME280;57617;51.988;5.854;2023-02-04T08:19:37;103156.22;;;9.41;73.08
70229;BME280;57617;51.988;5.854;2023-02-04T08:22:02;103160.28;;;9.45;72.93
70229;BME280;57617;51.988;5.854;2023-02-04T08:24:28;103166.03;;;9.50;72.51
70229;BME280;57617;51.988;5.854;2023-02-04T08:26:53;103167.16;;;9.56;72.60
70229;BME280;57617;51.988;5.854;2023-02-04T08:29:18;103167.84;;;9.58;72.86
70229;BME280;57617;51.988;5.854;2023-02-04T08:31:44;103165.81;;;9.60;72.80
70229;BME280;57617;51.988;5.854;2023-02-04T08:34:09;103170.03;;;9.62;72.56
70229;BME280;57617;51.988;5.854;2023-02-04T08:36:34;103177.63;;;9.67;72.28
70229;BME280;57617;51.988;5.854;2023-02-04T08:38:59;103179.34;;;9.68;72.82
70229;BME280;57617;51.988;5.854;2023-02-04T08:41:25;103180.16;;;9.68;72.74
70229;BME280;57617;51.988;5.854;2023-02-04T08:43:50;103180.16;;;9.68;73.00
70229;BME280;57617;51.988;5.854;2023-02-04T08:46:15;103181.84;;;9.69;73.17
70229;BME280;57617;51.988;5.854;2023-02-04T08:48:41;103175.59;;;9.69;73.01
70229;BME280;57617;51.988;5.854;2023-02-04T08:51:06;103178.25;;;9.77;72.85
70229;BME280;57617;51.988;5.854;2023-02-04T08:53:31;103178.94;;;9.79;72.94
70229;BME280;57617;51.988;5.854;2023-02-04T08:55:57;103181.75;;;9.85;72.74
70229;BME280;57617;51.988;5.854;2023-02-04T08:58:22;103183.97;;;9.90;72.82
70229;BME280;57617;51.988;5.854;2023-02-04T09:00:47;103180.03;;;9.92;72.80
70229;BME280;57617;51.988;5.854;2023-02-04T09:03:12;103185.78;;;9.97;73.20
70229;BME280;57617;51.988;5.854;2023-02-04T09:05:38;103180.53;;;10.04;73.06
70229;BME280;57617;51.988;5.854;2023-02-04T09:08:03;103187.78;;;10.11;72.85
70229;BME280;57617;51.988;5.854;2023-02-04T09:10:29;103181.63;;;10.17;73.12
70229;BME280;57617;51.988;5.854;2023-02-04T09:12:54;103186.97;;;10.25;72.98
70229;BME280;57617;51.988;5.854;2023-02-04T09:15:23;103191.03;;;10.29;72.75
70229;BME280;57617;51.988;5.854;2023-02-04T09:17:52;103182.31;;;10.34;72.90
70229;BME280;57617;51.988;5.854;2023-02-04T09:20:19;103194.00;;;10.42;72.99
70229;BME280;57617;51.988;5.854;2023-02-04T09:22:46;103200.75;;;10.46;72.76
70229;BME280;57617;51.988;5.854;2023-02-04T09:25:12;103193.91;;;10.50;73.03
70229;BME280;57617;51.988;5.854;2023-02-04T09:27:37;103197.97;;;10.54;72.34
70229;BME280;57617;51.988;5.854;2023-02-04T09:30:03;103190.84;;;10.53;72.48
70229;BME280;57617;51.988;5.854;2023-02-04T09:32:28;103194.91;;;10.57;72.28
70229;BME280;57617;51.988;5.854;2023-02-04T09:34:54;103201.00;;;10.59;72.48
70229;BME280;57617;51.988;5.854;2023-02-04T09:37:19;103197.06;;;10.62;72.26
70229;BME280;57617;51.988;5.854;2023-02-04T09:39:44;103197.72;;;10.64;72.16
70229;BME280;57617;51.988;5.854;2023-02-04T09:42:13;103203.16;;;10.64;72.27
70229;BME280;57617;51.988;5.854;2023-02-04T09:44:39;103197.25;;;10.60;71.94
70229;BME280;57617;51.988;5.854;2023-02-04T09:47:05;103194.81;;;10.65;71.97
70229;BME280;57617;51.988;5.854;2023-02-04T09:49:30;103197.66;;;10.72;72.26
70229;BME280;57617;51.988;5.854;2023-02-04T09:51:56;103192.34;;;10.78;72.09
70229;BME280;57617;51.988;5.854;2023-02-04T09:54:22;103203.13;;;10.86;72.20
70229;BME280;57617;51.988;5.854;2023-02-04T09:56:47;103200.97;;;10.96;72.07
70229;BME280;57617;51.988;5.854;2023-02-04T09:59:22;103201.84;;;10.97;71.50
70229;BME280;57617;51.988;5.854;2023-02-04T10:01:56;103209.06;;;11.04;71.76
70229;BME280;57617;51.988;5.854;2023-02-04T10:04:23;103216.31;;;11.12;71.73
70229;BME280;57617;51.988;5.854;2023-02-04T10:06:48;103215.56;;;11.18;71.85
70229;BME280;57617;51.988;5.854;2023-02-04T10:09:14;103216.19;;;11.20;71.56
70229;BME280;57617;51.988;5.854;2023-02-04T10:11:41;103212.94;;;11.24;71.57
70229;BME280;57617;51.988;5.854;2023-02-04T10:14:12;103211.91;;;11.25;70.95
70229;BME280;57617;51.988;5.854;2023-02-04T10:16:39;103215.56;;;11.32;71.58
70229;BME280;57617;51.988;5.854;2023-02-04T10:19:12;103220.25;;;11.38;71.11
70229;BME280;57617;51.988;5.854;2023-02-04T10:21:38;103222.03;;;11.46;71.44
70229;BME280;57617;51.988;5.854;2023-02-04T10:24:12;103218.09;;;11.48;70.48
70229;BME280;57617;51.988;5.854;2023-02-04T10:26:38;103221.09;;;11.53;70.96
70229;BME280;57617;51.988;5.854;2023-02-04T10:29:07;103226.00;;;11.58;70.56
70229;BME280;57617;51.988;5.854;2023-02-04T10:31:40;103225.63;;;11.61;69.67
70229;BME280;57617;51.988;5.854;2023-02-04T10:34:22;103218.31;;;11.61;70.08
70229;BME280;57617;51.988;5.854;2023-02-04T10:36:53;103221.22;;;11.60;69.82
70229;BME280;57617;51.988;5.854;2023-02-04T10:39:25;103217.94;;;11.64;69.53
70229;BME280;57617;51.988;5.854;2023-02-04T10:41:55;103220.56;;;11.72;69.80
70229;BME280;57617;51.988;5.854;2023-02-04T10:44:33;103222.34;;;11.80;69.45
70229;BME280;57617;51.988;5.854;2023-02-04T10:49:32;103232.38;;;11.94;69.54
70229;BME280;57617;51.988;5.854;2023-02-04T10:51:59;103226.34;;;11.98;69.10
70229;BME280;57617;51.988;5.854;2023-02-04T10:54:30;103224.25;;;12.00;69.17
70229;BME280;57617;51.988;5.854;2023-02-04T10:59:25;103226.34;;;11.98;68.51
70229;BME280;57617;51.988;5.854;2023-02-04T11:01:53;103225.69;;;11.96;68.17
70229;BME280;57617;51.988;5.854;2023-02-04T11:04:19;103225.47;;;11.98;67.96
70229;BME280;57617;51.988;5.854;2023-02-04T11:06:44;103227.84;;;12.01;68.03
70229;BME280;57617;51.988;5.854;2023-02-04T11:09:13;103225.13;;;12.01;67.80
70229;BME280;57617;51.988;5.854;2023-02-04T11:11:45;103222.03;;;12.04;67.34
70229;BME280;57617;51.988;5.854;2023-02-04T11:14:23;103221.88;;;12.12;67.40
70229;BME280;57617;51.988;5.854;2023-02-04T11:16:49;103220.66;;;12.14;67.38
70229;BME280;57617;51.988;5.854;2023-02-04T11:19:14;103222.81;;;12.19;67.71
70229;BME280;57617;51.988;5.854;2023-02-04T11:21:43;103226.19;;;12.21;67.02
70229;BME280;57617;51.988;5.854;2023-02-04T11:26:43;103225.91;;;12.16;66.99
70229;BME280;57617;51.988;5.854;2023-02-04T11:31:57;103218.97;;;12.13;64.75
70229;BME280;57617;51.988;5.854;2023-02-04T11:34:27;103225.91;;;12.16;66.07
70229;BME280;57617;51.988;5.854;2023-02-04T11:39:21;103223.88;;;12.03;66.63
70229;BME280;57617;51.988;5.854;2023-02-04T11:41:49;103223.88;;;12.03;66.32
70229;BME280;57617;51.988;5.854;2023-02-04T11:44:15;103223.88;;;12.03;66.19
70229;BME280;57617;51.988;5.854;2023-02-04T11:46:41;103223.88;;;12.03;66.36
70229;BME280;57617;51.988;5.854;2023-02-04T11:49:18;103223.56;;;12.13;65.92
70229;BME280;57617;51.988;5.854;2023-02-04T11:51:44;103223.66;;;12.19;65.94
70229;BME280;57617;51.988;5.854;2023-02-04T11:54:14;103223.91;;;12.24;65.21
70229;BME280;57617;51.988;5.854;2023-02-04T11:56:41;103228.13;;;12.27;65.41
70229;BME280;57617;51.988;5.854;2023-02-04T11:59:10;103228.81;;;12.29;65.15
70229;BME280;57617;51.988;5.854;2023-02-04T12:01:35;103222.50;;;12.28;65.11
70229;BME280;57617;51.988;5.854;2023-02-04T12:04:04;103217.69;;;12.30;65.51
70229;BME280;57617;51.988;5.854;2023-02-04T12:06:35;103223.53;;;12.27;65.38
70229;BME280;57617;51.988;5.854;2023-02-04T12:11:29;103231.06;;;12.25;65.23
70229;BME280;57617;51.988;5.854;2023-02-04T12:13:57;103225.59;;;12.25;64.95
70229;BME280;57617;51.988;5.854;2023-02-04T12:16:23;103220.81;;;12.27;65.02
70229;BME280;57617;51.988;5.854;2023-02-04T12:18:49;103233.22;;;12.30;64.40
70229;BME280;57617;51.988;5.854;2023-02-04T12:21:15;103228.59;;;12.30;64.64
70229;BME280;57617;51.988;5.854;2023-02-04T12:23:40;103226.91;;;12.29;64.49
70229;BME280;57617;51.988;5.854;2023-02-04T12:26:09;103226.72;;;12.31;64.29
70229;BME280;57617;51.988;5.854;2023-02-04T12:28:34;103227.00;;;12.36;64.36
70229;BME280;57617;51.988;5.854;2023-02-04T12:30:59;103229.78;;;12.42;64.36
70229;BME280;57617;51.988;5.854;2023-02-04T12:33:25;103216.53;;;12.39;64.38
70229;BME280;57617;51.988;5.854;2023-02-04T12:35:50;103220.31;;;12.38;63.72
70229;BME280;57617;51.988;5.854;2023-02-04T12:38:16;103224.91;;;12.38;63.72
70229;BME280;57617;51.988;5.854;2023-02-04T12:40:41;103227.25;;;12.41;63.58
70229;BME280;57617;51.988;5.854;2023-02-04T12:43:06;103236.25;;;12.41;63.68
70229;BME280;57617;51.988;5.854;2023-02-04T12:45:32;103232.78;;;12.47;63.49
70229;BME280;57617;51.988;5.854;2023-02-04T12:47:58;103235.97;;;12.51;63.49
70229;BME280;57617;51.988;5.854;2023-02-04T12:50:23;103228.56;;;12.45;63.37
70229;BME280;57617;51.988;5.854;2023-02-04T12:52:51;103234.66;;;12.47;63.69
70229;BME280;57617;51.988;5.854;2023-02-04T12:55:17;103232.78;;;12.47;63.39
70229;BME280;57617;51.988;5.854;2023-02-04T12:57:43;103227.78;;;12.51;63.49
70229;BME280;57617;51.988;5.854;2023-02-04T13:00:09;103226.53;;;12.53;63.22
70229;BME280;57617;51.988;5.854;2023-02-04T13:02:34;103223.22;;;12.58;63.49
70229;BME280;57617;51.988;5.854;2023-02-04T13:05:00;103223.66;;;12.61;63.07
70229;BME280;57617;51.988;5.854;2023-02-04T13:07:25;103228.94;;;12.63;63.02